sensor_id;sensor_type;location;lat;lon;timestamp;P1;durP1;ratioP1;P2;durP2;ratioP2
55210;SDS011;41082;52.822;6.666;2022-08-21T00:01:35;8.68;;;1.52;;
55210;SDS011;41082;52.822;6.666;2022-08-21T00:04:04;6.45;;;1.50;;
55210;SDS011;41082;52.822;6.666;2022-08-21T00:06:31;7.30;;;1.70;;
55210;SDS011;41082;52.822;6.666;2022-08-21T00:08:58;6.18;;;1.65;;
55210;SDS011;41082;52.822;6.666;2022-08-21T00:11:24;4.40;;;1.10;;
55210;SDS011;41082;52.822;6.666;2022-08-21T00:13:52;3.15;;;1.00;;
55210;SDS011;41082;52.822;6.666;2022-08-21T00:16:18;3.08;;;1.10;;
55210;SDS011;41082;52.822;6.666;2022-08-21T00:18:43;3.60;;;1.10;;
55210;SDS011;41082;52.822;6.666;2022-08-21T00:21:10;6.22;;;0.98;;
55210;SDS011;41082;52.822;6.666;2022-08-21T00:23:38;3.35;;;1.10;;
55210;SDS011;41082;52.822;6.666;2022-08-21T00:26:04;5.65;;;1.40;;
55210;SDS011;41082;52.822;6.666;2022-08-21T00:28:30;3.15;;;1.00;;
55210;SDS011;41082;52.822;6.666;2022-08-21T00:30:56;4.13;;;1.27;;
55210;SDS011;41082;52.822;6.666;2022-08-21T00:33:22;2.70;;;1.13;;
55210;SDS011;41082;52.822;6.666;2022-08-21T00:35:48;4.18;;;1.42;;
55210;SDS011;41082;52.822;6.666;2022-08-21T00:38:14;5.65;;;1.58;;
55210;SDS011;41082;52.822;6.666;2022-08-21T00:43:11;6.32;;;1.75;;
55210;SDS011;41082;52.822;6.666;2022-08-21T00:45:39;6.07;;;2.40;;
55210;SDS011;41082;52.822;6.666;2022-08-21T00:48:05;6.70;;;1.80;;
55210;SDS011;41082;52.822;6.666;2022-08-21T00:50:32;3.72;;;1.40;;
55210;SDS011;41082;52.822;6.666;2022-08-21T00:53:00;5.35;;;1.50;;
55210;SDS011;41082;52.822;6.666;2022-08-21T00:55:27;3.33;;;1.60;;
55210;SDS011;41082;52.822;6.666;2022-08-21T00:57:55;3.63;;;1.40;;
55210;SDS011;41082;52.822;6.666;2022-08-21T01:00:25;3.15;;;1.23;;
55210;SDS011;41082;52.822;6.666;2022-08-21T01:02:56;5.05;;;1.20;;
55210;SDS011;41082;52.822;6.666;2022-08-21T01:05:24;7.03;;;1.77;;
55210;SDS011;41082;52.822;6.666;2022-08-21T01:07:50;6.07;;;1.70;;
55210;SDS011;41082;52.822;6.666;2022-08-21T01:10:16;3.95;;;1.58;;
55210;SDS011;41082;52.822;6.666;2022-08-21T01:12:43;3.75;;;1.60;;
55210;SDS011;41082;52.822;6.666;2022-08-21T01:15:09;3.10;;;1.80;;
55210;SDS011;41082;52.822;6.666;2022-08-21T01:17:36;6.53;;;2.20;;
55210;SDS011;41082;52.822;6.666;2022-08-21T01:20:04;3.88;;;1.90;;
55210;SDS011;41082;52.822;6.666;2022-08-21T01:22:32;4.53;;;1.95;;
55210;SDS011;41082;52.822;6.666;2022-08-21T01:24:58;3.28;;;2.00;;
55210;SDS011;41082;52.822;6.666;2022-08-21T01:27:23;4.43;;;1.60;;
55210;SDS011;41082;52.822;6.666;2022-08-21T01:29:56;3.53;;;1.42;;
55210;SDS011;41082;52.822;6.666;2022-08-21T01:32:24;4.55;;;1.42;;
55210;SDS011;41082;52.822;6.666;2022-08-21T01:34:51;6.25;;;2.20;;
55210;SDS011;41082;52.822;6.666;2022-08-21T01:37:17;3.83;;;2.38;;
55210;SDS011;41082;52.822;6.666;2022-08-21T01:39:44;6.22;;;3.03;;
55210;SDS011;41082;52.822;6.666;2022-08-21T01:42:11;8.55;;;4.10;;
55210;SDS011;41082;52.822;6.666;2022-08-21T01:44:38;8.18;;;4.05;;
55210;SDS011;41082;52.822;6.666;2022-08-21T01:47:05;7.15;;;4.30;;
55210;SDS011;41082;52.822;6.666;2022-08-21T01:49:33;8.27;;;4.10;;
55210;SDS011;41082;52.822;6.666;2022-08-21T01:51:59;6.10;;;3.35;;
55210;SDS011;41082;52.822;6.666;2022-08-21T01:54:25;9.00;;;3.63;;
55210;SDS011;41082;52.822;6.666;2022-08-21T01:56:52;10.15;;;4.90;;
55210;SDS011;41082;52.822;6.666;2022-08-21T01:59:18;8.68;;;4.20;;
55210;SDS011;41082;52.822;6.666;2022-08-21T02:01:45;7.53;;;5.50;;
55210;SDS011;41082;52.822;6.666;2022-08-21T02:04:11;9.10;;;6.35;;
55210;SDS011;41082;52.822;6.666;2022-08-21T02:06:37;9.45;;;5.75;;
55210;SDS011;41082;52.822;6.666;2022-08-21T02:09:04;10.70;;;6.28;;
55210;SDS011;41082;52.822;6.666;2022-08-21T02:11:31;10.63;;;5.95;;
55210;SDS011;41082;52.822;6.666;2022-08-21T02:13:57;8.27;;;5.28;;
55210;SDS011;41082;52.822;6.666;2022-08-21T02:16:23;9.85;;;5.47;;
55210;SDS011;41082;52.822;6.666;2022-08-21T02:18:49;11.13;;;6.05;;
55210;SDS011;41082;52.822;6.666;2022-08-21T02:21:14;10.75;;;5.93;;
55210;SDS011;41082;52.822;6.666;2022-08-21T02:23:40;12.32;;;6.47;;
55210;SDS011;41082;52.822;6.666;2022-08-21T02:26:06;10.32;;;6.03;;
55210;SDS011;41082;52.822;6.666;2022-08-21T02:28:33;11.95;;;5.65;;
55210;SDS011;41082;52.822;6.666;2022-08-21T02:31:00;11.20;;;5.50;;
55210;SDS011;41082;52.822;6.666;2022-08-21T02:33:26;10.45;;;5.95;;
55210;SDS011;41082;52.822;6.666;2022-08-21T02:35:53;8.60;;;5.47;;
55210;SDS011;41082;52.822;6.666;2022-08-21T02:38:24;11.88;;;6.07;;
55210;SDS011;41082;52.822;6.666;2022-08-21T02:40:52;9.35;;;6.13;;
55210;SDS011;41082;52.822;6.666;2022-08-21T02:43:19;14.90;;;6.57;;
55210;SDS011;41082;52.822;6.666;2022-08-21T02:45:46;9.18;;;6.03;;
55210;SDS011;41082;52.822;6.666;2022-08-21T02:48:15;8.98;;;6.55;;
55210;SDS011;41082;52.822;6.666;2022-08-21T02:50:44;11.07;;;6.13;;
55210;SDS011;41082;52.822;6.666;2022-08-21T02:53:14;9.82;;;6.57;;
55210;SDS011;41082;52.822;6.666;2022-08-21T02:55:42;9.13;;;5.85;;
55210;SDS011;41082;52.822;6.666;2022-08-21T02:58:09;8.70;;;6.30;;
55210;SDS011;41082;52.822;6.666;2022-08-21T03:00:35;9.70;;;6.60;;
55210;SDS011;41082;52.822;6.666;2022-08-21T03:03:02;10.73;;;6.18;;
55210;SDS011;41082;52.822;6.666;2022-08-21T03:05:29;9.57;;;6.93;;
55210;SDS011;41082;52.822;6.666;2022-08-21T03:07:59;12.55;;;6.40;;
55210;SDS011;41082;52.822;6.666;2022-08-21T03:10:26;9.82;;;6.18;;
55210;SDS011;41082;52.822;6.666;2022-08-21T03:12:52;9.82;;;6.45;;
55210;SDS011;41082;52.822;6.666;2022-08-21T03:15:18;12.57;;;7.05;;
55210;SDS011;41082;52.822;6.666;2022-08-21T03:17:46;9.60;;;6.47;;
55210;SDS011;41082;52.822;6.666;2022-08-21T03:20:12;13.60;;;6.45;;
55210;SDS011;41082;52.822;6.666;2022-08-21T03:22:40;11.02;;;6.78;;
55210;SDS011;41082;52.822;6.666;2022-08-21T03:25:06;11.88;;;6.25;;
55210;SDS011;41082;52.822;6.666;2022-08-21T03:27:33;11.68;;;6.40;;
55210;SDS011;41082;52.822;6.666;2022-08-21T03:29:59;12.32;;;6.63;;
55210;SDS011;41082;52.822;6.666;2022-08-21T03:32:25;14.07;;;6.20;;
55210;SDS011;41082;52.822;6.666;2022-08-21T03:34:51;8.68;;;6.20;;
55210;SDS011;41082;52.822;6.666;2022-08-21T03:37:17;10.48;;;6.13;;
55210;SDS011;41082;52.822;6.666;2022-08-21T03:39:43;15.13;;;6.75;;
55210;SDS011;41082;52.822;6.666;2022-08-21T03:42:10;10.23;;;6.03;;
55210;SDS011;41082;52.822;6.666;2022-08-21T03:44:36;14.68;;;7.13;;
55210;SDS011;41082;52.822;6.666;2022-08-21T03:47:02;9.20;;;6.68;;
55210;SDS011;41082;52.822;6.666;2022-08-21T03:49:28;10.80;;;6.25;;
55210;SDS011;41082;52.822;6.666;2022-08-21T03:51:54;11.10;;;6.38;;
55210;SDS011;41082;52.822;6.666;2022-08-21T03:54:19;10.50;;;6.28;;
55210;SDS011;41082;52.822;6.666;2022-08-21T03:56:45;10.23;;;6.30;;
55210;SDS011;41082;52.822;6.666;2022-08-21T03:59:11;15.18;;;7.05;;
55210;SDS011;41082;52.822;6.666;2022-08-21T04:01:37;8.32;;;5.93;;
55210;SDS011;41082;52.822;6.666;2022-08-21T04:04:04;10.38;;;6.53;;
55210;SDS011;41082;52.822;6.666;2022-08-21T04:06:30;11.52;;;6.53;;
55210;SDS011;41082;52.822;6.666;2022-08-21T04:08:56;10.43;;;5.88;;
55210;SDS011;41082;52.822;6.666;2022-08-21T04:11:22;12.23;;;7.00;;
55210;SDS011;41082;52.822;6.666;2022-08-21T04:13:47;13.45;;;6.72;;
55210;SDS011;41082;52.822;6.666;2022-08-21T04:16:13;11.52;;;6.38;;
55210;SDS011;41082;52.822;6.666;2022-08-21T04:18:39;10.05;;;6.35;;
55210;SDS011;41082;52.822;6.666;2022-08-21T04:21:05;11.77;;;5.80;;
55210;SDS011;41082;52.822;6.666;2022-08-21T04:23:34;11.18;;;6.20;;
55210;SDS011;41082;52.822;6.666;2022-08-21T04:26:00;9.00;;;6.75;;
55210;SDS011;41082;52.822;6.666;2022-08-21T04:28:26;6.35;;;5.57;;
55210;SDS011;41082;52.822;6.666;2022-08-21T04:30:52;12.07;;;6.10;;
55210;SDS011;41082;52.822;6.666;2022-08-21T04:33:19;11.48;;;6.30;;
55210;SDS011;41082;52.822;6.666;2022-08-21T04:35:45;9.63;;;5.18;;
55210;SDS011;41082;52.822;6.666;2022-08-21T04:38:12;9.10;;;5.63;;
55210;SDS011;41082;52.822;6.666;2022-08-21T04:40:37;13.57;;;7.05;;
55210;SDS011;41082;52.822;6.666;2022-08-21T04:43:04;10.77;;;5.97;;
55210;SDS011;41082;52.822;6.666;2022-08-21T04:45:33;10.80;;;5.90;;
55210;SDS011;41082;52.822;6.666;2022-08-21T04:48:00;9.80;;;6.10;;
55210;SDS011;41082;52.822;6.666;2022-08-21T04:50:34;9.70;;;6.57;;
55210;SDS011;41082;52.822;6.666;2022-08-21T04:53:02;8.07;;;5.22;;
55210;SDS011;41082;52.822;6.666;2022-08-21T04:55:28;7.93;;;5.57;;
55210;SDS011;41082;52.822;6.666;2022-08-21T04:57:55;8.73;;;5.72;;
55210;SDS011;41082;52.822;6.666;2022-08-21T05:00:22;8.45;;;6.07;;
55210;SDS011;41082;52.822;6.666;2022-08-21T05:02:49;9.27;;;6.20;;
55210;SDS011;41082;52.822;6.666;2022-08-21T05:05:19;9.68;;;5.97;;
55210;SDS011;41082;52.822;6.666;2022-08-21T05:07:45;7.32;;;5.22;;
55210;SDS011;41082;52.822;6.666;2022-08-21T05:10:12;8.80;;;5.38;;
55210;SDS011;41082;52.822;6.666;2022-08-21T05:12:38;9.63;;;5.55;;
55210;SDS011;41082;52.822;6.666;2022-08-21T05:15:06;6.90;;;5.18;;
55210;SDS011;41082;52.822;6.666;2022-08-21T05:17:33;8.90;;;5.72;;
55210;SDS011;41082;52.822;6.666;2022-08-21T05:19:58;8.82;;;5.70;;
55210;SDS011;41082;52.822;6.666;2022-08-21T05:22:24;7.93;;;5.35;;
55210;SDS011;41082;52.822;6.666;2022-08-21T05:24:50;10.57;;;5.15;;
55210;SDS011;41082;52.822;6.666;2022-08-21T05:27:16;7.78;;;5.35;;
55210;SDS011;41082;52.822;6.666;2022-08-21T05:29:42;12.23;;;5.78;;
55210;SDS011;41082;52.822;6.666;2022-08-21T05:32:11;9.90;;;5.28;;
55210;SDS011;41082;52.822;6.666;2022-08-21T05:34:38;9.48;;;5.80;;
55210;SDS011;41082;52.822;6.666;2022-08-21T05:37:03;10.82;;;5.78;;
55210;SDS011;41082;52.822;6.666;2022-08-21T05:39:30;8.38;;;5.15;;
55210;SDS011;41082;52.822;6.666;2022-08-21T05:41:56;8.13;;;5.10;;
55210;SDS011;41082;52.822;6.666;2022-08-21T05:44:21;8.88;;;5.75;;
55210;SDS011;41082;52.822;6.666;2022-08-21T05:46:47;7.35;;;5.05;;
55210;SDS011;41082;52.822;6.666;2022-08-21T05:49:13;9.65;;;5.95;;
55210;SDS011;41082;52.822;6.666;2022-08-21T05:51:40;6.43;;;5.18;;
55210;SDS011;41082;52.822;6.666;2022-08-21T05:54:06;9.40;;;5.53;;
55210;SDS011;41082;52.822;6.666;2022-08-21T05:56:32;6.53;;;4.72;;
55210;SDS011;41082;52.822;6.666;2022-08-21T05:58:58;8.50;;;5.40;;
55210;SDS011;41082;52.822;6.666;2022-08-21T06:01:23;6.65;;;5.15;;
55210;SDS011;41082;52.822;6.666;2022-08-21T06:03:49;10.60;;;5.22;;
55210;SDS011;41082;52.822;6.666;2022-08-21T06:06:15;9.13;;;5.10;;
55210;SDS011;41082;52.822;6.666;2022-08-21T06:08:41;11.25;;;4.88;;
55210;SDS011;41082;52.822;6.666;2022-08-21T06:11:07;10.63;;;4.75;;
55210;SDS011;41082;52.822;6.666;2022-08-21T06:13:34;8.48;;;5.03;;
55210;SDS011;41082;52.822;6.666;2022-08-21T06:18:38;9.75;;;4.75;;
55210;SDS011;41082;52.822;6.666;2022-08-21T06:21:05;8.13;;;4.40;;
55210;SDS011;41082;52.822;6.666;2022-08-21T06:23:31;15.27;;;5.50;;
55210;SDS011;41082;52.822;6.666;2022-08-21T06:25:58;12.45;;;5.47;;
55210;SDS011;41082;52.822;6.666;2022-08-21T06:28:23;9.55;;;4.95;;
55210;SDS011;41082;52.822;6.666;2022-08-21T06:30:49;10.38;;;4.88;;
55210;SDS011;41082;52.822;6.666;2022-08-21T06:33:16;12.35;;;5.60;;
55210;SDS011;41082;52.822;6.666;2022-08-21T06:35:42;9.98;;;5.20;;
55210;SDS011;41082;52.822;6.666;2022-08-21T06:38:07;10.02;;;5.22;;
55210;SDS011;41082;52.822;6.666;2022-08-21T06:40:33;9.02;;;4.63;;
55210;SDS011;41082;52.822;6.666;2022-08-21T06:43:04;10.35;;;4.88;;
55210;SDS011;41082;52.822;6.666;2022-08-21T06:45:32;10.60;;;5.63;;
55210;SDS011;41082;52.822;6.666;2022-08-21T06:47:57;10.70;;;4.47;;
55210;SDS011;41082;52.822;6.666;2022-08-21T06:50:23;11.10;;;4.60;;
55210;SDS011;41082;52.822;6.666;2022-08-21T06:52:48;11.98;;;5.18;;
55210;SDS011;41082;52.822;6.666;2022-08-21T06:55:14;8.43;;;4.72;;
55210;SDS011;41082;52.822;6.666;2022-08-21T06:57:40;8.05;;;4.60;;
55210;SDS011;41082;52.822;6.666;2022-08-21T07:00:06;11.80;;;4.70;;
55210;SDS011;41082;52.822;6.666;2022-08-21T07:02:32;12.20;;;5.05;;
55210;SDS011;41082;52.822;6.666;2022-08-21T07:04:58;9.88;;;4.32;;
55210;SDS011;41082;52.822;6.666;2022-08-21T07:07:24;7.50;;;4.28;;
55210;SDS011;41082;52.822;6.666;2022-08-21T07:09:49;9.57;;;4.15;;
55210;SDS011;41082;52.822;6.666;2022-08-21T07:12:15;11.10;;;3.88;;
55210;SDS011;41082;52.822;6.666;2022-08-21T07:14:41;8.68;;;4.45;;
55210;SDS011;41082;52.822;6.666;2022-08-21T07:17:07;11.68;;;5.38;;
55210;SDS011;41082;52.822;6.666;2022-08-21T07:19:33;9.13;;;4.40;;
55210;SDS011;41082;52.822;6.666;2022-08-21T07:22:00;8.68;;;4.32;;
55210;SDS011;41082;52.822;6.666;2022-08-21T07:24:27;9.10;;;3.85;;
55210;SDS011;41082;52.822;6.666;2022-08-21T07:26:53;10.65;;;3.95;;
55210;SDS011;41082;52.822;6.666;2022-08-21T07:29:18;10.10;;;3.83;;
55210;SDS011;41082;52.822;6.666;2022-08-21T07:31:44;12.45;;;4.18;;
55210;SDS011;41082;52.822;6.666;2022-08-21T07:34:10;10.35;;;3.50;;
55210;SDS011;41082;52.822;6.666;2022-08-21T07:36:36;9.50;;;3.25;;
55210;SDS011;41082;52.822;6.666;2022-08-21T07:39:01;7.90;;;2.30;;
55210;SDS011;41082;52.822;6.666;2022-08-21T07:41:28;13.30;;;3.05;;
55210;SDS011;41082;52.822;6.666;2022-08-21T07:43:55;10.18;;;3.00;;
55210;SDS011;41082;52.822;6.666;2022-08-21T07:46:22;10.15;;;2.75;;
55210;SDS011;41082;52.822;6.666;2022-08-21T07:48:49;6.63;;;2.80;;
55210;SDS011;41082;52.822;6.666;2022-08-21T07:51:15;9.30;;;2.40;;
55210;SDS011;41082;52.822;6.666;2022-08-21T07:53:48;8.75;;;3.00;;
55210;SDS011;41082;52.822;6.666;2022-08-21T07:56:15;12.32;;;2.40;;
55210;SDS011;41082;52.822;6.666;2022-08-21T07:58:41;12.25;;;2.03;;
55210;SDS011;41082;52.822;6.666;2022-08-21T08:01:07;9.55;;;1.73;;
55210;SDS011;41082;52.822;6.666;2022-08-21T08:03:32;6.47;;;1.48;;
55210;SDS011;41082;52.822;6.666;2022-08-21T08:05:58;7.53;;;1.70;;
55210;SDS011;41082;52.822;6.666;2022-08-21T08:08:24;7.70;;;1.65;;
55210;SDS011;41082;52.822;6.666;2022-08-21T08:10:50;12.75;;;1.65;;
55210;SDS011;41082;52.822;6.666;2022-08-21T08:13:18;5.50;;;1.33;;
55210;SDS011;41082;52.822;6.666;2022-08-21T08:15:44;7.35;;;1.85;;
55210;SDS011;41082;52.822;6.666;2022-08-21T08:18:09;6.75;;;1.73;;
55210;SDS011;41082;52.822;6.666;2022-08-21T08:20:35;9.45;;;1.92;;
55210;SDS011;41082;52.822;6.666;2022-08-21T08:23:01;9.55;;;2.08;;
55210;SDS011;41082;52.822;6.666;2022-08-21T08:25:27;10.13;;;1.65;;
55210;SDS011;41082;52.822;6.666;2022-08-21T08:27:53;8.60;;;1.77;;
55210;SDS011;41082;52.822;6.666;2022-08-21T08:30:19;6.65;;;1.77;;
55210;SDS011;41082;52.822;6.666;2022-08-21T08:32:46;10.07;;;1.65;;
55210;SDS011;41082;52.822;6.666;2022-08-21T08:35:12;9.23;;;1.40;;
55210;SDS011;41082;52.822;6.666;2022-08-21T08:37:39;9.75;;;1.92;;
55210;SDS011;41082;52.822;6.666;2022-08-21T08:40:09;9.55;;;1.20;;
55210;SDS011;41082;52.822;6.666;2022-08-21T08:42:56;7.45;;;1.52;;
55210;SDS011;41082;52.822;6.666;2022-08-21T08:45:22;6.80;;;1.67;;
55210;SDS011;41082;52.822;6.666;2022-08-21T08:47:52;7.32;;;1.52;;
55210;SDS011;41082;52.822;6.666;2022-08-21T08:53:06;7.57;;;1.90;;
55210;SDS011;41082;52.822;6.666;2022-08-21T08:55:36;6.88;;;1.42;;
55210;SDS011;41082;52.822;6.666;2022-08-21T08:58:05;6.57;;;1.63;;
55210;SDS011;41082;52.822;6.666;2022-08-21T09:00:31;5.65;;;1.70;;
55210;SDS011;41082;52.822;6.666;2022-08-21T09:03:00;11.02;;;1.77;;
55210;SDS011;41082;52.822;6.666;2022-08-21T09:16:13;5.07;;;1.52;;
55210;SDS011;41082;52.822;6.666;2022-08-21T09:29:38;6.75;;;1.25;;
55210;SDS011;41082;52.822;6.666;2022-08-21T09:35:12;7.47;;;1.42;;
55210;SDS011;41082;52.822;6.666;2022-08-21T09:37:49;8.07;;;1.30;;
55210;SDS011;41082;52.822;6.666;2022-08-21T09:40:30;6.95;;;1.00;;
55210;SDS011;41082;52.822;6.666;2022-08-21T09:43:17;5.40;;;1.15;;
55210;SDS011;41082;52.822;6.666;2022-08-21T09:45:46;7.88;;;1.42;;
55210;SDS011;41082;52.822;6.666;2022-08-21T09:48:19;7.03;;;1.08;;
55210;SDS011;41082;52.822;6.666;2022-08-21T09:50:48;4.97;;;1.02;;
55210;SDS011;41082;52.822;6.666;2022-08-21T09:53:24;6.05;;;1.10;;
55210;SDS011;41082;52.822;6.666;2022-08-21T09:55:59;5.47;;;0.70;;
55210;SDS011;41082;52.822;6.666;2022-08-21T09:58:48;6.28;;;0.68;;
55210;SDS011;41082;52.822;6.666;2022-08-21T10:01:16;7.00;;;1.23;;
55210;SDS011;41082;52.822;6.666;2022-08-21T10:04:01;6.20;;;1.00;;
55210;SDS011;41082;52.822;6.666;2022-08-21T10:06:32;3.92;;;0.73;;
55210;SDS011;41082;52.822;6.666;2022-08-21T10:09:13;6.53;;;0.60;;
55210;SDS011;41082;52.822;6.666;2022-08-21T10:11:42;6.80;;;0.73;;
55210;SDS011;41082;52.822;6.666;2022-08-21T10:14:20;5.22;;;0.77;;
55210;SDS011;41082;52.822;6.666;2022-08-21T10:17:07;4.75;;;0.50;;
55210;SDS011;41082;52.822;6.666;2022-08-21T10:20:07;6.90;;;0.65;;
55210;SDS011;41082;52.822;6.666;2022-08-21T10:22:45;9.23;;;0.80;;
55210;SDS011;41082;52.822;6.666;2022-08-21T10:26:10;5.97;;;0.77;;
55210;SDS011;41082;52.822;6.666;2022-08-21T10:28:54;5.85;;;0.57;;
55210;SDS011;41082;52.822;6.666;2022-08-21T10:37:15;6.78;;;1.40;;
55210;SDS011;41082;52.822;6.666;2022-08-21T10:43:16;5.97;;;0.93;;
55210;SDS011;41082;52.822;6.666;2022-08-21T10:48:38;3.88;;;0.70;;
55210;SDS011;41082;52.822;6.666;2022-08-21T10:51:28;8.23;;;0.60;;
55210;SDS011;41082;52.822;6.666;2022-08-21T10:56:54;6.22;;;0.80;;
55210;SDS011;41082;52.822;6.666;2022-08-21T10:59:30;7.22;;;0.73;;
55210;SDS011;41082;52.822;6.666;2022-08-21T11:02:20;5.43;;;0.88;;
55210;SDS011;41082;52.822;6.666;2022-08-21T11:05:10;4.05;;;0.80;;
55210;SDS011;41082;52.822;6.666;2022-08-21T11:07:54;4.85;;;0.50;;
55210;SDS011;41082;52.822;6.666;2022-08-21T11:10:37;5.78;;;0.70;;
55210;SDS011;41082;52.822;6.666;2022-08-21T11:13:17;4.22;;;0.55;;
55210;SDS011;41082;52.822;6.666;2022-08-21T11:16:09;5.97;;;1.23;;
55210;SDS011;41082;52.822;6.666;2022-08-21T11:18:41;4.13;;;0.60;;
55210;SDS011;41082;52.822;6.666;2022-08-21T11:23:57;4.88;;;0.90;;
55210;SDS011;41082;52.822;6.666;2022-08-21T11:29:02;3.03;;;0.60;;
55210;SDS011;41082;52.822;6.666;2022-08-21T11:34:13;4.03;;;0.70;;
55210;SDS011;41082;52.822;6.666;2022-08-21T11:37:35;6.18;;;0.98;;
55210;SDS011;41082;52.822;6.666;2022-08-21T11:45:51;5.47;;;0.50;;
55210;SDS011;41082;52.822;6.666;2022-08-21T11:48:40;5.80;;;0.60;;
55210;SDS011;41082;52.822;6.666;2022-08-21T11:54:40;7.18;;;1.42;;
55210;SDS011;41082;52.822;6.666;2022-08-21T11:57:20;4.13;;;0.40;;
55210;SDS011;41082;52.822;6.666;2022-08-21T12:00:05;6.72;;;0.60;;
55210;SDS011;41082;52.822;6.666;2022-08-21T12:02:35;5.15;;;0.68;;
55210;SDS011;41082;52.822;6.666;2022-08-21T12:05:05;5.53;;;0.63;;
55210;SDS011;41082;52.822;6.666;2022-08-21T12:09:59;5.57;;;0.70;;
55210;SDS011;41082;52.822;6.666;2022-08-21T12:12:29;5.22;;;0.73;;
55210;SDS011;41082;52.822;6.666;2022-08-21T12:15:05;3.50;;;0.85;;
55210;SDS011;41082;52.822;6.666;2022-08-21T12:17:50;7.45;;;1.00;;
55210;SDS011;41082;52.822;6.666;2022-08-21T12:23:12;7.43;;;0.80;;
55210;SDS011;41082;52.822;6.666;2022-08-21T12:26:09;6.57;;;0.70;;
55210;SDS011;41082;52.822;6.666;2022-08-21T12:28:46;6.70;;;0.68;;
55210;SDS011;41082;52.822;6.666;2022-08-21T12:31:21;4.70;;;0.70;;
55210;SDS011;41082;52.822;6.666;2022-08-21T12:33:56;4.28;;;0.52;;
55210;SDS011;41082;52.822;6.666;2022-08-21T12:36:39;6.88;;;0.60;;
55210;SDS011;41082;52.822;6.666;2022-08-21T12:39:13;5.15;;;0.77;;
55210;SDS011;41082;52.822;6.666;2022-08-21T12:44:34;6.55;;;0.88;;
55210;SDS011;41082;52.822;6.666;2022-08-21T12:47:14;5.38;;;0.80;;
55210;SDS011;41082;52.822;6.666;2022-08-21T12:49:49;5.32;;;0.80;;
55210;SDS011;41082;52.822;6.666;2022-08-21T12:52:30;3.58;;;0.70;;
55210;SDS011;41082;52.822;6.666;2022-08-21T12:55:00;4.55;;;0.80;;
55210;SDS011;41082;52.822;6.666;2022-08-21T12:57:26;4.03;;;0.80;;
55210;SDS011;41082;52.822;6.666;2022-08-21T12:59:55;5.20;;;0.70;;
55210;SDS011;41082;52.822;6.666;2022-08-21T13:02:28;4.65;;;0.68;;
55210;SDS011;41082;52.822;6.666;2022-08-21T13:04:56;4.97;;;0.93;;
55210;SDS011;41082;52.822;6.666;2022-08-21T13:07:29;4.93;;;0.90;;
55210;SDS011;41082;52.822;6.666;2022-08-21T13:10:02;7.88;;;1.00;;
55210;SDS011;41082;52.822;6.666;2022-08-21T13:12:40;5.90;;;1.13;;
55210;SDS011;41082;52.822;6.666;2022-08-21T13:15:07;5.50;;;0.70;;
55210;SDS011;41082;52.822;6.666;2022-08-21T13:17:34;7.65;;;1.08;;
55210;SDS011;41082;52.822;6.666;2022-08-21T13:20:05;7.05;;;1.17;;
55210;SDS011;41082;52.822;6.666;2022-08-21T13:22:39;12.00;;;1.20;;
55210;SDS011;41082;52.822;6.666;2022-08-21T13:25:11;7.18;;;1.17;;
55210;SDS011;41082;52.822;6.666;2022-08-21T13:27:38;8.77;;;1.00;;
55210;SDS011;41082;52.822;6.666;2022-08-21T13:30:11;8.55;;;1.48;;
55210;SDS011;41082;52.822;6.666;2022-08-21T13:32:43;9.82;;;1.10;;
55210;SDS011;41082;52.822;6.666;2022-08-21T13:37:48;7.75;;;1.05;;
55210;SDS011;41082;52.822;6.666;2022-08-21T13:40:18;6.75;;;0.93;;
55210;SDS011;41082;52.822;6.666;2022-08-21T13:42:48;5.43;;;0.75;;
55210;SDS011;41082;52.822;6.666;2022-08-21T13:45:24;6.75;;;0.90;;
55210;SDS011;41082;52.822;6.666;2022-08-21T13:47:52;5.93;;;0.80;;
55210;SDS011;41082;52.822;6.666;2022-08-21T13:50:20;5.35;;;0.75;;
55210;SDS011;41082;52.822;6.666;2022-08-21T13:55:47;5.28;;;0.95;;
55210;SDS011;41082;52.822;6.666;2022-08-21T13:58:23;5.18;;;0.80;;
55210;SDS011;41082;52.822;6.666;2022-08-21T14:00:50;6.00;;;0.80;;
55210;SDS011;41082;52.822;6.666;2022-08-21T14:03:52;5.28;;;0.85;;
55210;SDS011;41082;52.822;6.666;2022-08-21T14:06:21;6.25;;;1.15;;
55210;SDS011;41082;52.822;6.666;2022-08-21T14:08:51;5.20;;;0.68;;
55210;SDS011;41082;52.822;6.666;2022-08-21T14:11:23;5.80;;;1.00;;
55210;SDS011;41082;52.822;6.666;2022-08-21T14:13:55;6.32;;;0.88;;
55210;SDS011;41082;52.822;6.666;2022-08-21T14:17:07;6.70;;;0.93;;
55210;SDS011;41082;52.822;6.666;2022-08-21T14:19:39;7.53;;;1.10;;
55210;SDS011;41082;52.822;6.666;2022-08-21T14:22:23;7.22;;;1.10;;
55210;SDS011;41082;52.822;6.666;2022-08-21T14:27:49;5.97;;;0.82;;
55210;SDS011;41082;52.822;6.666;2022-08-21T14:30:18;4.18;;;0.60;;
55210;SDS011;41082;52.822;6.666;2022-08-21T14:32:54;4.10;;;0.82;;
55210;SDS011;41082;52.822;6.666;2022-08-21T14:35:20;5.25;;;1.17;;
55210;SDS011;41082;52.822;6.666;2022-08-21T14:37:46;7.72;;;1.02;;
55210;SDS011;41082;52.822;6.666;2022-08-21T14:40:15;4.15;;;0.73;;
55210;SDS011;41082;52.822;6.666;2022-08-21T14:42:42;4.55;;;0.75;;
55210;SDS011;41082;52.822;6.666;2022-08-21T14:45:27;4.13;;;0.77;;
55210;SDS011;41082;52.822;6.666;2022-08-21T14:47:55;4.35;;;1.00;;
55210;SDS011;41082;52.822;6.666;2022-08-21T14:50:22;6.22;;;0.90;;
55210;SDS011;41082;52.822;6.666;2022-08-21T14:52:48;6.50;;;1.25;;
55210;SDS011;41082;52.822;6.666;2022-08-21T14:55:14;5.28;;;1.45;;
55210;SDS011;41082;52.822;6.666;2022-08-21T14:57:42;5.00;;;0.70;;
55210;SDS011;41082;52.822;6.666;2022-08-21T15:00:11;7.03;;;0.90;;
55210;SDS011;41082;52.822;6.666;2022-08-21T15:02:38;4.45;;;0.93;;
55210;SDS011;41082;52.822;6.666;2022-08-21T15:05:04;8.20;;;1.00;;
55210;SDS011;41082;52.822;6.666;2022-08-21T15:07:30;3.70;;;0.85;;
55210;SDS011;41082;52.822;6.666;2022-08-21T15:09:56;8.95;;;1.00;;
55210;SDS011;41082;52.822;6.666;2022-08-21T15:12:22;3.17;;;0.93;;
55210;SDS011;41082;52.822;6.666;2022-08-21T15:14:48;5.63;;;1.00;;
55210;SDS011;41082;52.822;6.666;2022-08-21T15:17:14;6.05;;;0.93;;
55210;SDS011;41082;52.822;6.666;2022-08-21T15:19:40;3.53;;;0.80;;
55210;SDS011;41082;52.822;6.666;2022-08-21T15:22:06;6.97;;;0.95;;
55210;SDS011;41082;52.822;6.666;2022-08-21T15:24:32;5.20;;;1.10;;
55210;SDS011;41082;52.822;6.666;2022-08-21T15:26:59;5.28;;;0.77;;
55210;SDS011;41082;52.822;6.666;2022-08-21T15:29:26;7.75;;;1.20;;
55210;SDS011;41082;52.822;6.666;2022-08-21T15:31:56;5.55;;;1.05;;
55210;SDS011;41082;52.822;6.666;2022-08-21T15:34:25;11.07;;;1.05;;
55210;SDS011;41082;52.822;6.666;2022-08-21T15:36:52;6.95;;;2.00;;
55210;SDS011;41082;52.822;6.666;2022-08-21T15:39:19;8.45;;;1.55;;
55210;SDS011;41082;52.822;6.666;2022-08-21T15:41:45;8.68;;;1.00;;
55210;SDS011;41082;52.822;6.666;2022-08-21T15:44:12;9.65;;;0.98;;
55210;SDS011;41082;52.822;6.666;2022-08-21T15:46:39;5.72;;;1.17;;
55210;SDS011;41082;52.822;6.666;2022-08-21T15:49:05;4.38;;;0.70;;
55210;SDS011;41082;52.822;6.666;2022-08-21T15:51:31;4.65;;;0.93;;
55210;SDS011;41082;52.822;6.666;2022-08-21T15:53:58;4.95;;;1.00;;
55210;SDS011;41082;52.822;6.666;2022-08-21T15:56:25;5.65;;;0.77;;
55210;SDS011;41082;52.822;6.666;2022-08-21T16:01:25;3.53;;;0.65;;
55210;SDS011;41082;52.822;6.666;2022-08-21T16:03:52;6.35;;;1.00;;
55210;SDS011;41082;52.822;6.666;2022-08-21T16:06:19;3.88;;;0.65;;
55210;SDS011;41082;52.822;6.666;2022-08-21T16:08:44;5.10;;;0.63;;
55210;SDS011;41082;52.822;6.666;2022-08-21T16:11:11;4.47;;;0.80;;
55210;SDS011;41082;52.822;6.666;2022-08-21T16:13:39;6.35;;;0.73;;
55210;SDS011;41082;52.822;6.666;2022-08-21T16:16:08;5.32;;;0.85;;
55210;SDS011;41082;52.822;6.666;2022-08-21T16:18:36;4.88;;;1.13;;
55210;SDS011;41082;52.822;6.666;2022-08-21T16:21:02;8.45;;;0.80;;
55210;SDS011;41082;52.822;6.666;2022-08-21T16:23:27;3.17;;;0.65;;